sensor_id;sensor_type;location;lat;lon;timestamp;P1;durP1;ratioP1;P2;durP2;ratioP2
71462;SDS011;59266;52.608;13.260;2024-03-25T00:00:35;6.82;;;2.53;;
71462;SDS011;59266;52.608;13.260;2024-03-25T00:03:01;7.03;;;2.92;;
71462;SDS011;59266;52.608;13.260;2024-03-25T00:05:26;9.15;;;2.72;;
71462;SDS011;59266;52.608;13.260;2024-03-25T00:07:52;7.35;;;2.25;;
71462;SDS011;59266;52.608;13.260;2024-03-25T00:10:18;7.55;;;2.75;;
71462;SDS011;59266;52.608;13.260;2024-03-25T00:12:46;8.07;;;2.65;;
71462;SDS011;59266;52.608;13.260;2024-03-25T00:15:12;7.05;;;2.60;;
71462;SDS011;59266;52.608;13.260;2024-03-25T00:17:38;7.82;;;2.97;;
71462;SDS011;59266;52.608;13.260;2024-03-25T00:20:04;9.02;;;2.90;;
71462;SDS011;59266;52.608;13.260;2024-03-25T00:22:34;7.45;;;2.70;;
71462;SDS011;59266;52.608;13.260;2024-03-25T00:25:00;8.00;;;3.10;;
71462;SDS011;59266;52.608;13.260;2024-03-25T00:27:26;8.18;;;2.88;;
71462;SDS011;59266;52.608;13.260;2024-03-25T00:29:51;7.55;;;3.03;;
71462;SDS011;59266;52.608;13.260;2024-03-25T00:32:17;8.32;;;2.90;;
71462;SDS011;59266;52.608;13.260;2024-03-25T00:34:43;7.35;;;2.92;;
71462;SDS011;59266;52.608;13.260;2024-03-25T00:37:08;9.25;;;3.50;;
71462;SDS011;59266;52.608;13.260;2024-03-25T00:39:34;8.55;;;2.88;;
71462;SDS011;59266;52.608;13.260;2024-03-25T00:42:00;9.13;;;4.07;;
71462;SDS011;59266;52.608;13.260;2024-03-25T00:44:26;10.98;;;3.50;;
71462;SDS011;59266;52.608;13.260;2024-03-25T00:46:51;8.75;;;3.17;;
71462;SDS011;59266;52.608;13.260;2024-03-25T00:49:17;8.77;;;3.60;;
71462;SDS011;59266;52.608;13.260;2024-03-25T00:51:43;7.75;;;3.08;;
71462;SDS011;59266;52.608;13.260;2024-03-25T00:54:08;8.15;;;2.95;;
71462;SDS011;59266;52.608;13.260;2024-03-25T00:56:34;8.10;;;3.25;;
71462;SDS011;59266;52.608;13.260;2024-03-25T00:59:00;8.55;;;3.30;;
71462;SDS011;59266;52.608;13.260;2024-03-25T01:01:29;10.38;;;3.70;;
71462;SDS011;59266;52.608;13.260;2024-03-25T01:03:55;9.70;;;3.30;;
71462;SDS011;59266;52.608;13.260;2024-03-25T01:06:21;12.77;;;3.63;;
71462;SDS011;59266;52.608;13.260;2024-03-25T01:08:46;8.93;;;3.47;;
71462;SDS011;59266;52.608;13.260;2024-03-25T01:11:12;9.85;;;3.67;;
71462;SDS011;59266;52.608;13.260;2024-03-25T01:13:37;11.13;;;3.92;;
71462;SDS011;59266;52.608;13.260;2024-03-25T01:16:03;10.00;;;3.67;;
71462;SDS011;59266;52.608;13.260;2024-03-25T01:18:29;9.23;;;3.72;;
71462;SDS011;59266;52.608;13.260;2024-03-25T01:20:54;11.35;;;4.00;;
71462;SDS011;59266;52.608;13.260;2024-03-25T01:23:20;9.95;;;3.90;;
71462;SDS011;59266;52.608;13.260;2024-03-25T01:25:46;10.52;;;3.60;;
71462;SDS011;59266;52.608;13.260;2024-03-25T01:28:11;11.30;;;3.72;;
71462;SDS011;59266;52.608;13.260;2024-03-25T01:30:37;11.13;;;3.72;;
71462;SDS011;59266;52.608;13.260;2024-03-25T01:33:04;11.07;;;4.20;;
71462;SDS011;59266;52.608;13.260;2024-03-25T01:35:30;9.65;;;3.75;;
71462;SDS011;59266;52.608;13.260;2024-03-25T01:37:56;9.88;;;4.00;;
71462;SDS011;59266;52.608;13.260;2024-03-25T01:40:22;10.80;;;3.75;;
71462;SDS011;59266;52.608;13.260;2024-03-25T01:43:00;9.68;;;3.75;;
71462;SDS011;59266;52.608;13.260;2024-03-25T01:45:31;11.98;;;4.03;;
71462;SDS011;59266;52.608;13.260;2024-03-25T01:48:07;13.82;;;4.28;;
71462;SDS011;59266;52.608;13.260;2024-03-25T01:50:36;9.23;;;3.47;;
71462;SDS011;59266;52.608;13.260;2024-03-25T01:53:04;8.43;;;3.33;;
71462;SDS011;59266;52.608;13.260;2024-03-25T01:55:30;9.05;;;3.08;;
71462;SDS011;59266;52.608;13.260;2024-03-25T01:57:59;10.18;;;2.90;;
71462;SDS011;59266;52.608;13.260;2024-03-25T02:00:25;7.18;;;2.58;;
71462;SDS011;59266;52.608;13.260;2024-03-25T02:02:52;7.88;;;2.47;;
71462;SDS011;59266;52.608;13.260;2024-03-25T02:05:18;6.72;;;2.47;;
71462;SDS011;59266;52.608;13.260;2024-03-25T02:07:44;7.22;;;2.20;;
71462;SDS011;59266;52.608;13.260;2024-03-25T02:10:10;7.43;;;2.30;;
71462;SDS011;59266;52.608;13.260;2024-03-25T02:12:42;6.82;;;2.17;;
71462;SDS011;59266;52.608;13.260;2024-03-25T02:15:09;5.97;;;1.85;;
71462;SDS011;59266;52.608;13.260;2024-03-25T02:17:36;9.32;;;2.30;;
71462;SDS011;59266;52.608;13.260;2024-03-25T02:20:02;23.85;;;3.05;;
71462;SDS011;59266;52.608;13.260;2024-03-25T02:22:30;7.20;;;2.40;;
71462;SDS011;59266;52.608;13.260;2024-03-25T02:24:57;7.25;;;2.03;;
71462;SDS011;59266;52.608;13.260;2024-03-25T02:27:25;6.93;;;1.95;;
71462;SDS011;59266;52.608;13.260;2024-03-25T02:29:50;6.10;;;1.77;;
71462;SDS011;59266;52.608;13.260;2024-03-25T02:32:16;3.83;;;1.33;;
71462;SDS011;59266;52.608;13.260;2024-03-25T02:34:46;4.95;;;1.55;;
71462;SDS011;59266;52.608;13.260;2024-03-25T02:37:13;4.85;;;1.50;;
71462;SDS011;59266;52.608;13.260;2024-03-25T02:39:39;5.18;;;1.77;;
71462;SDS011;59266;52.608;13.260;2024-03-25T02:42:04;5.60;;;1.90;;
71462;SDS011;59266;52.608;13.260;2024-03-25T02:44:30;5.80;;;1.70;;
71462;SDS011;59266;52.608;13.260;2024-03-25T02:46:57;5.65;;;1.80;;
71462;SDS011;59266;52.608;13.260;2024-03-25T02:49:23;5.50;;;1.85;;
71462;SDS011;59266;52.608;13.260;2024-03-25T02:51:48;4.25;;;1.63;;
71462;SDS011;59266;52.608;13.260;2024-03-25T02:54:14;7.60;;;2.03;;
71462;SDS011;59266;52.608;13.260;2024-03-25T02:56:40;8.18;;;2.40;;
71462;SDS011;59266;52.608;13.260;2024-03-25T02:59:06;6.13;;;1.95;;
71462;SDS011;59266;52.608;13.260;2024-03-25T03:01:32;8.05;;;2.20;;
71462;SDS011;59266;52.608;13.260;2024-03-25T03:03:57;7.28;;;2.22;;
71462;SDS011;59266;52.608;13.260;2024-03-25T03:06:23;7.97;;;2.53;;
71462;SDS011;59266;52.608;13.260;2024-03-25T03:08:49;8.82;;;2.88;;
71462;SDS011;59266;52.608;13.260;2024-03-25T03:11:14;8.35;;;3.03;;
71462;SDS011;59266;52.608;13.260;2024-03-25T03:13:40;10.30;;;2.97;;
71462;SDS011;59266;52.608;13.260;2024-03-25T03:16:06;10.13;;;2.97;;
71462;SDS011;59266;52.608;13.260;2024-03-25T03:18:31;11.23;;;3.10;;
71462;SDS011;59266;52.608;13.260;2024-03-25T03:20:57;11.02;;;3.10;;
71462;SDS011;59266;52.608;13.260;2024-03-25T03:23:23;9.70;;;3.10;;
71462;SDS011;59266;52.608;13.260;2024-03-25T03:25:48;10.38;;;3.13;;
71462;SDS011;59266;52.608;13.260;2024-03-25T03:28:14;10.55;;;3.00;;
71462;SDS011;59266;52.608;13.260;2024-03-25T03:30:40;11.23;;;2.88;;
71462;SDS011;59266;52.608;13.260;2024-03-25T03:33:06;10.50;;;3.10;;
71462;SDS011;59266;52.608;13.260;2024-03-25T03:35:35;11.57;;;2.83;;
71462;SDS011;59266;52.608;13.260;2024-03-25T03:38:00;10.75;;;3.17;;
71462;SDS011;59266;52.608;13.260;2024-03-25T03:40:26;8.50;;;2.40;;
71462;SDS011;59266;52.608;13.260;2024-03-25T03:42:53;9.75;;;3.03;;
71462;SDS011;59266;52.608;13.260;2024-03-25T03:45:19;10.00;;;2.90;;
71462;SDS011;59266;52.608;13.260;2024-03-25T03:47:44;9.68;;;2.88;;
71462;SDS011;59266;52.608;13.260;2024-03-25T03:50:10;8.52;;;2.55;;
71462;SDS011;59266;52.608;13.260;2024-03-25T03:52:35;6.55;;;2.42;;
71462;SDS011;59266;52.608;13.260;2024-03-25T03:55:01;11.20;;;2.58;;
71462;SDS011;59266;52.608;13.260;2024-03-25T03:57:26;8.13;;;2.63;;
71462;SDS011;59266;52.608;13.260;2024-03-25T03:59:52;6.28;;;2.17;;
71462;SDS011;59266;52.608;13.260;2024-03-25T04:02:18;7.75;;;2.40;;
71462;SDS011;59266;52.608;13.260;2024-03-25T04:04:43;9.07;;;2.30;;
71462;SDS011;59266;52.608;13.260;2024-03-25T04:07:09;11.15;;;2.47;;
71462;SDS011;59266;52.608;13.260;2024-03-25T04:09:35;6.20;;;1.98;;
71462;SDS011;59266;52.608;13.260;2024-03-25T04:12:00;9.25;;;2.17;;
71462;SDS011;59266;52.608;13.260;2024-03-25T04:14:26;8.70;;;2.55;;
71462;SDS011;59266;52.608;13.260;2024-03-25T04:16:52;7.75;;;2.50;;
71462;SDS011;59266;52.608;13.260;2024-03-25T04:19:25;6.82;;;2.08;;
71462;SDS011;59266;52.608;13.260;2024-03-25T04:21:50;9.05;;;2.20;;
71462;SDS011;59266;52.608;13.260;2024-03-25T04:24:18;8.52;;;2.50;;
71462;SDS011;59266;52.608;13.260;2024-03-25T04:26:44;8.57;;;2.58;;
71462;SDS011;59266;52.608;13.260;2024-03-25T04:29:10;8.60;;;2.55;;
71462;SDS011;59266;52.608;13.260;2024-03-25T04:31:35;8.00;;;2.17;;
71462;SDS011;59266;52.608;13.260;2024-03-25T04:34:03;9.93;;;2.70;;
71462;SDS011;59266;52.608;13.260;2024-03-25T04:36:30;10.55;;;2.70;;
71462;SDS011;59266;52.608;13.260;2024-03-25T04:38:56;9.20;;;3.30;;
71462;SDS011;59266;52.608;13.260;2024-03-25T04:41:22;9.43;;;3.00;;
71462;SDS011;59266;52.608;13.260;2024-03-25T04:43:48;10.30;;;3.13;;
71462;SDS011;59266;52.608;13.260;2024-03-25T04:46:14;9.88;;;3.47;;
71462;SDS011;59266;52.608;13.260;2024-03-25T04:48:39;11.35;;;3.28;;
71462;SDS011;59266;52.608;13.260;2024-03-25T04:51:05;9.88;;;3.28;;
71462;SDS011;59266;52.608;13.260;2024-03-25T04:53:31;11.82;;;3.50;;
71462;SDS011;59266;52.608;13.260;2024-03-25T04:55:57;10.95;;;3.17;;
71462;SDS011;59266;52.608;13.260;2024-03-25T04:58:26;11.30;;;2.95;;
71462;SDS011;59266;52.608;13.260;2024-03-25T05:00:52;11.85;;;3.15;;
71462;SDS011;59266;52.608;13.260;2024-03-25T05:03:17;9.93;;;3.15;;
71462;SDS011;59266;52.608;13.260;2024-03-25T05:05:44;10.27;;;3.25;;
71462;SDS011;59266;52.608;13.260;2024-03-25T05:08:09;11.82;;;3.08;;
71462;SDS011;59266;52.608;13.260;2024-03-25T05:10:35;8.60;;;2.67;;
71462;SDS011;59266;52.608;13.260;2024-03-25T05:13:00;9.02;;;2.60;;
71462;SDS011;59266;52.608;13.260;2024-03-25T05:15:29;10.45;;;3.20;;
71462;SDS011;59266;52.608;13.260;2024-03-25T05:17:54;8.48;;;2.53;;
71462;SDS011;59266;52.608;13.260;2024-03-25T05:20:20;11.30;;;2.38;;
71462;SDS011;59266;52.608;13.260;2024-03-25T05:22:46;9.38;;;2.60;;
71462;SDS011;59266;52.608;13.260;2024-03-25T05:25:12;9.02;;;2.70;;
71462;SDS011;59266;52.608;13.260;2024-03-25T05:27:37;10.38;;;2.13;;
71462;SDS011;59266;52.608;13.260;2024-03-25T05:30:03;8.25;;;2.28;;
71462;SDS011;59266;52.608;13.260;2024-03-25T05:32:29;8.35;;;2.88;;
71462;SDS011;59266;52.608;13.260;2024-03-25T05:34:55;9.15;;;2.60;;
71462;SDS011;59266;52.608;13.260;2024-03-25T05:37:20;10.48;;;3.10;;
71462;SDS011;59266;52.608;13.260;2024-03-25T05:39:46;13.45;;;3.45;;
71462;SDS011;59266;52.608;13.260;2024-03-25T05:42:11;14.45;;;3.20;;
71462;SDS011;59266;52.608;13.260;2024-03-25T05:44:37;11.63;;;3.20;;
71462;SDS011;59266;52.608;13.260;2024-03-25T05:47:03;13.48;;;3.78;;
71462;SDS011;59266;52.608;13.260;2024-03-25T05:49:28;11.35;;;3.15;;
71462;SDS011;59266;52.608;13.260;2024-03-25T05:51:54;12.48;;;3.20;;
71462;SDS011;59266;52.608;13.260;2024-03-25T05:54:19;11.35;;;3.25;;
71462;SDS011;59266;52.608;13.260;2024-03-25T05:56:45;10.30;;;3.25;;
71462;SDS011;59266;52.608;13.260;2024-03-25T05:59:11;12.35;;;3.38;;
71462;SDS011;59266;52.608;13.260;2024-03-25T06:01:36;10.43;;;3.13;;
71462;SDS011;59266;52.608;13.260;2024-03-25T06:04:03;14.70;;;3.13;;
71462;SDS011;59266;52.608;13.260;2024-03-25T06:06:29;13.55;;;3.20;;
71462;SDS011;59266;52.608;13.260;2024-03-25T06:08:54;12.38;;;3.10;;
71462;SDS011;59266;52.608;13.260;2024-03-25T06:11:20;12.73;;;3.10;;
71462;SDS011;59266;52.608;13.260;2024-03-25T06:13:46;16.63;;;3.53;;
71462;SDS011;59266;52.608;13.260;2024-03-25T06:16:18;9.25;;;2.90;;
71462;SDS011;59266;52.608;13.260;2024-03-25T06:18:43;9.13;;;2.67;;
71462;SDS011;59266;52.608;13.260;2024-03-25T06:21:09;14.55;;;3.20;;
71462;SDS011;59266;52.608;13.260;2024-03-25T06:23:35;8.25;;;2.58;;
71462;SDS011;59266;52.608;13.260;2024-03-25T06:26:00;15.18;;;2.72;;
71462;SDS011;59266;52.608;13.260;2024-03-25T06:28:26;8.77;;;2.85;;
71462;SDS011;59266;52.608;13.260;2024-03-25T06:30:51;14.82;;;3.30;;
71462;SDS011;59266;52.608;13.260;2024-03-25T06:33:36;11.10;;;2.95;;
71462;SDS011;59266;52.608;13.260;2024-03-25T06:36:20;9.45;;;3.10;;
71462;SDS011;59266;52.608;13.260;2024-03-25T06:38:46;9.93;;;3.28;;
71462;SDS011;59266;52.608;13.260;2024-03-25T06:41:12;14.98;;;4.10;;
71462;SDS011;59266;52.608;13.260;2024-03-25T06:43:38;12.48;;;4.00;;
71462;SDS011;59266;52.608;13.260;2024-03-25T06:46:04;9.73;;;2.92;;
71462;SDS011;59266;52.608;13.260;2024-03-25T06:48:30;10.65;;;2.80;;
71462;SDS011;59266;52.608;13.260;2024-03-25T06:50:57;13.65;;;3.60;;
71462;SDS011;59266;52.608;13.260;2024-03-25T06:53:23;11.00;;;3.80;;
71462;SDS011;59266;52.608;13.260;2024-03-25T06:55:55;8.77;;;2.67;;
71462;SDS011;59266;52.608;13.260;2024-03-25T06:58:23;11.15;;;3.30;;
71462;SDS011;59266;52.608;13.260;2024-03-25T07:00:50;13.45;;;4.13;;
71462;SDS011;59266;52.608;13.260;2024-03-25T07:03:19;11.18;;;2.92;;
71462;SDS011;59266;52.608;13.260;2024-03-25T07:05:46;10.55;;;2.90;;
71462;SDS011;59266;52.608;13.260;2024-03-25T07:08:15;10.77;;;2.88;;
71462;SDS011;59266;52.608;13.260;2024-03-25T07:10:41;9.02;;;3.05;;
71462;SDS011;59266;52.608;13.260;2024-03-25T07:13:07;9.80;;;3.28;;
71462;SDS011;59266;52.608;13.260;2024-03-25T07:15:32;9.35;;;3.60;;
71462;SDS011;59266;52.608;13.260;2024-03-25T07:17:58;6.97;;;2.67;;
71462;SDS011;59266;52.608;13.260;2024-03-25T07:20:25;8.23;;;2.55;;
71462;SDS011;59266;52.608;13.260;2024-03-25T07:22:55;7.85;;;3.00;;
71462;SDS011;59266;52.608;13.260;2024-03-25T07:25:21;9.38;;;2.80;;
71462;SDS011;59266;52.608;13.260;2024-03-25T07:27:49;6.85;;;2.28;;
71462;SDS011;59266;52.608;13.260;2024-03-25T07:30:15;8.95;;;2.63;;
71462;SDS011;59266;52.608;13.260;2024-03-25T07:32:41;9.18;;;3.38;;
71462;SDS011;59266;52.608;13.260;2024-03-25T07:35:07;12.27;;;3.28;;
71462;SDS011;59266;52.608;13.260;2024-03-25T07:37:34;8.40;;;3.03;;
71462;SDS011;59266;52.608;13.260;2024-03-25T07:40:00;9.90;;;2.78;;
71462;SDS011;59266;52.608;13.260;2024-03-25T07:42:26;8.10;;;2.40;;
71462;SDS011;59266;52.608;13.260;2024-03-25T07:44:51;9.85;;;2.30;;
71462;SDS011;59266;52.608;13.260;2024-03-25T07:47:18;6.60;;;2.50;;
71462;SDS011;59266;52.608;13.260;2024-03-25T07:49:43;7.70;;;2.10;;
71462;SDS011;59266;52.608;13.260;2024-03-25T07:52:09;9.77;;;2.97;;
71462;SDS011;59266;52.608;13.260;2024-03-25T07:54:35;8.10;;;2.45;;
71462;SDS011;59266;52.608;13.260;2024-03-25T07:57:03;10.00;;;3.05;;
71462;SDS011;59266;52.608;13.260;2024-03-25T07:59:29;8.07;;;2.50;;
71462;SDS011;59266;52.608;13.260;2024-03-25T08:01:55;9.25;;;2.88;;
71462;SDS011;59266;52.608;13.260;2024-03-25T08:04:21;8.52;;;2.78;;
71462;SDS011;59266;52.608;13.260;2024-03-25T08:06:46;10.77;;;3.38;;
71462;SDS011;59266;52.608;13.260;2024-03-25T08:09:12;8.70;;;2.85;;
71462;SDS011;59266;52.608;13.260;2024-03-25T08:11:40;10.80;;;3.42;;
71462;SDS011;59266;52.608;13.260;2024-03-25T08:14:09;8.68;;;2.95;;
71462;SDS011;59266;52.608;13.260;2024-03-25T08:16:36;13.30;;;3.50;;
71462;SDS011;59266;52.608;13.260;2024-03-25T08:19:03;9.40;;;3.13;;
71462;SDS011;59266;52.608;13.260;2024-03-25T08:21:28;12.20;;;3.28;;
71462;SDS011;59266;52.608;13.260;2024-03-25T08:23:54;9.70;;;3.00;;
71462;SDS011;59266;52.608;13.260;2024-03-25T08:26:19;9.00;;;3.08;;
71462;SDS011;59266;52.608;13.260;2024-03-25T08:28:45;10.95;;;2.72;;
71462;SDS011;59266;52.608;13.260;2024-03-25T08:31:11;8.40;;;3.40;;
71462;SDS011;59266;52.608;13.260;2024-03-25T08:33:36;9.75;;;2.88;;
71462;SDS011;59266;52.608;13.260;2024-03-25T08:36:02;12.82;;;3.13;;
71462;SDS011;59266;52.608;13.260;2024-03-25T08:38:28;11.45;;;3.70;;
71462;SDS011;59266;52.608;13.260;2024-03-25T08:40:54;14.48;;;3.72;;
71462;SDS011;59266;52.608;13.260;2024-03-25T08:43:19;11.73;;;3.75;;
71462;SDS011;59266;52.608;13.260;2024-03-25T08:45:45;11.90;;;2.70;;
71462;SDS011;59266;52.608;13.260;2024-03-25T08:48:12;12.55;;;3.67;;
71462;SDS011;59266;52.608;13.260;2024-03-25T08:50:37;9.00;;;3.22;;
71462;SDS011;59266;52.608;13.260;2024-03-25T08:53:03;10.68;;;3.38;;
71462;SDS011;59266;52.608;13.260;2024-03-25T08:55:29;10.52;;;3.25;;
71462;SDS011;59266;52.608;13.260;2024-03-25T08:57:56;10.38;;;3.20;;
71462;SDS011;59266;52.608;13.260;2024-03-25T09:00:26;10.57;;;3.03;;
71462;SDS011;59266;52.608;13.260;2024-03-25T09:02:52;9.02;;;2.53;;
71462;SDS011;59266;52.608;13.260;2024-03-25T09:05:19;8.77;;;3.78;;
71462;SDS011;59266;52.608;13.260;2024-03-25T09:07:45;11.55;;;2.95;;
71462;SDS011;59266;52.608;13.260;2024-03-25T09:10:15;9.30;;;2.95;;
71462;SDS011;59266;52.608;13.260;2024-03-25T09:12:59;9.68;;;2.65;;
71462;SDS011;59266;52.608;13.260;2024-03-25T09:15:25;7.15;;;2.90;;
71462;SDS011;59266;52.608;13.260;2024-03-25T09:17:50;9.52;;;2.90;;
71462;SDS011;59266;52.608;13.260;2024-03-25T09:20:16;9.65;;;3.17;;
71462;SDS011;59266;52.608;13.260;2024-03-25T09:22:42;9.40;;;2.38;;
71462;SDS011;59266;52.608;13.260;2024-03-25T09:25:09;7.22;;;2.30;;
71462;SDS011;59266;52.608;13.260;2024-03-25T09:27:35;9.55;;;2.40;;
71462;SDS011;59266;52.608;13.260;2024-03-25T09:30:01;8.38;;;3.10;;
71462;SDS011;59266;52.608;13.260;2024-03-25T09:32:29;8.75;;;2.63;;
71462;SDS011;59266;52.608;13.260;2024-03-25T09:34:56;11.88;;;2.85;;
71462;SDS011;59266;52.608;13.260;2024-03-25T09:37:22;7.45;;;2.60;;
71462;SDS011;59266;52.608;13.260;2024-03-25T09:39:47;8.57;;;2.70;;
71462;SDS011;59266;52.608;13.260;2024-03-25T09:42:18;7.10;;;2.97;;
71462;SDS011;59266;52.608;13.260;2024-03-25T09:44:52;10.38;;;3.25;;
71462;SDS011;59266;52.608;13.260;2024-03-25T09:47:20;11.90;;;2.95;;
71462;SDS011;59266;52.608;13.260;2024-03-25T09:49:46;7.13;;;2.78;;
71462;SDS011;59266;52.608;13.260;2024-03-25T09:52:13;8.68;;;2.38;;
71462;SDS011;59266;52.608;13.260;2024-03-25T09:54:42;7.68;;;2.28;;
71462;SDS011;59266;52.608;13.260;2024-03-25T09:57:08;8.15;;;2.92;;
71462;SDS011;59266;52.608;13.260;2024-03-25T09:59:34;7.93;;;2.15;;
71462;SDS011;59266;52.608;13.260;2024-03-25T10:02:01;7.53;;;2.33;;
71462;SDS011;59266;52.608;13.260;2024-03-25T10:04:27;7.97;;;2.33;;
71462;SDS011;59266;52.608;13.260;2024-03-25T10:06:52;12.57;;;2.65;;
71462;SDS011;59266;52.608;13.260;2024-03-25T10:09:19;7.40;;;2.08;;
71462;SDS011;59266;52.608;13.260;2024-03-25T10:11:47;6.47;;;2.40;;
71462;SDS011;59266;52.608;13.260;2024-03-25T10:14:15;8.23;;;2.33;;
71462;SDS011;59266;52.608;13.260;2024-03-25T10:16:42;6.03;;;2.00;;
71462;SDS011;59266;52.608;13.260;2024-03-25T10:19:08;6.28;;;2.20;;
71462;SDS011;59266;52.608;13.260;2024-03-25T10:21:34;6.35;;;2.33;;
71462;SDS011;59266;52.608;13.260;2024-03-25T10:23:59;6.60;;;1.70;;
71462;SDS011;59266;52.608;13.260;2024-03-25T10:26:26;6.68;;;1.88;;
71462;SDS011;59266;52.608;13.260;2024-03-25T10:29:00;7.88;;;2.53;;
71462;SDS011;59266;52.608;13.260;2024-03-25T10:31:26;5.85;;;1.80;;
71462;SDS011;59266;52.608;13.260;2024-03-25T10:33:51;4.72;;;1.48;;
71462;SDS011;59266;52.608;13.260;2024-03-25T10:36:18;7.30;;;2.05;;
71462;SDS011;59266;52.608;13.260;2024-03-25T10:38:44;5.22;;;1.83;;
71462;SDS011;59266;52.608;13.260;2024-03-25T10:56:28;5.15;;;1.65;;
71462;SDS011;59266;52.608;13.260;2024-03-25T10:58:54;6.47;;;1.70;;
71462;SDS011;59266;52.608;13.260;2024-03-25T11:01:21;5.40;;;1.65;;
71462;SDS011;59266;52.608;13.260;2024-03-25T11:03:48;5.20;;;1.52;;
71462;SDS011;59266;52.608;13.260;2024-03-25T11:06:15;5.68;;;2.28;;
71462;SDS011;59266;52.608;13.260;2024-03-25T11:08:42;6.30;;;1.45;;
71462;SDS011;59266;52.608;13.260;2024-03-25T11:11:12;6.97;;;2.42;;
71462;SDS011;59266;52.608;13.260;2024-03-25T11:13:38;4.75;;;1.70;;
71462;SDS011;59266;52.608;13.260;2024-03-25T11:16:05;5.15;;;1.70;;
71462;SDS011;59266;52.608;13.260;2024-03-25T11:22:23;5.68;;;1.80;;
71462;SDS011;59266;52.608;13.260;2024-03-25T11:24:50;7.13;;;1.65;;
71462;SDS011;59266;52.608;13.260;2024-03-25T11:42:41;4.88;;;1.48;;
71462;SDS011;59266;52.608;13.260;2024-03-25T11:45:20;6.53;;;1.52;;
71462;SDS011;59266;52.608;13.260;2024-03-25T11:47:47;4.97;;;1.48;;
71462;SDS011;59266;52.608;13.260;2024-03-25T11:50:15;3.55;;;1.10;;
71462;SDS011;59266;52.608;13.260;2024-03-25T11:52:41;4.50;;;1.27;;
71462;SDS011;59266;52.608;13.260;2024-03-25T11:58:54;3.33;;;1.00;;
71462;SDS011;59266;52.608;13.260;2024-03-25T12:01:20;4.90;;;1.52;;
71462;SDS011;59266;52.608;13.260;2024-03-25T12:03:45;6.95;;;1.98;;
71462;SDS011;59266;52.608;13.260;2024-03-25T12:06:11;5.78;;;1.90;;
71462;SDS011;59266;52.608;13.260;2024-03-25T12:08:37;5.80;;;1.40;;
71462;SDS011;59266;52.608;13.260;2024-03-25T12:11:10;4.30;;;1.30;;
71462;SDS011;59266;52.608;13.260;2024-03-25T12:13:47;4.70;;;1.50;;
71462;SDS011;59266;52.608;13.260;2024-03-25T12:16:13;7.97;;;1.63;;
71462;SDS011;59266;52.608;13.260;2024-03-25T12:18:42;5.20;;;1.27;;
71462;SDS011;59266;52.608;13.260;2024-03-25T12:21:07;7.38;;;1.83;;
71462;SDS011;59266;52.608;13.260;2024-03-25T12:23:34;4.50;;;1.40;;
71462;SDS011;59266;52.608;13.260;2024-03-25T12:26:00;7.32;;;2.72;;
71462;SDS011;59266;52.608;13.260;2024-03-25T12:28:26;4.32;;;1.23;;
71462;SDS011;59266;52.608;13.260;2024-03-25T12:30:52;6.07;;;1.30;;
71462;SDS011;59266;52.608;13.260;2024-03-25T12:33:20;3.83;;;1.02;;
71462;SDS011;59266;52.608;13.260;2024-03-25T12:35:46;5.95;;;1.40;;
71462;SDS011;59266;52.608;13.260;2024-03-25T12:38:25;3.70;;;1.30;;
71462;SDS011;59266;52.608;13.260;2024-03-25T12:40:52;4.13;;;1.13;;
71462;SDS011;59266;52.608;13.260;2024-03-25T12:43:18;4.20;;;1.13;;
71462;SDS011;59266;52.608;13.260;2024-03-25T12:45:44;3.90;;;1.05;;
71462;SDS011;59266;52.608;13.260;2024-03-25T12:48:10;4.22;;;1.30;;
71462;SDS011;59266;52.608;13.260;2024-03-25T12:50:36;4.65;;;1.30;;
71462;SDS011;59266;52.608;13.260;2024-03-25T12:53:02;2.83;;;1.13;;
71462;SDS011;59266;52.608;13.260;2024-03-25T12:55:29;5.38;;;1.30;;
71462;SDS011;59266;52.608;13.260;2024-03-25T12:57:55;4.13;;;1.23;;
71462;SDS011;59266;52.608;13.260;2024-03-25T13:00:20;3.80;;;0.98;;
71462;SDS011;59266;52.608;13.260;2024-03-25T13:02:46;4.32;;;1.27;;
71462;SDS011;59266;52.608;13.260;2024-03-25T13:05:11;2.03;;;0.90;;
71462;SDS011;59266;52.608;13.260;2024-03-25T13:07:37;4.95;;;1.10;;
71462;SDS011;59266;52.608;13.260;2024-03-25T13:10:02;3.22;;;1.10;;
71462;SDS011;59266;52.608;13.260;2024-03-25T13:12:30;3.22;;;1.30;;
71462;SDS011;59266;52.608;13.260;2024-03-25T13:14:56;4.75;;;1.10;;
71462;SDS011;59266;52.608;13.260;2024-03-25T13:17:23;3.45;;;1.00;;
71462;SDS011;59266;52.608;13.260;2024-03-25T13:19:48;3.67;;;1.23;;
71462;SDS011;59266;52.608;13.260;2024-03-25T13:22:15;3.67;;;1.42;;
71462;SDS011;59266;52.608;13.260;2024-03-25T13:24:41;4.55;;;1.35;;
71462;SDS011;59266;52.608;13.260;2024-03-25T13:27:06;4.82;;;1.15;;
71462;SDS011;59266;52.608;13.260;2024-03-25T13:29:32;3.83;;;1.27;;
71462;SDS011;59266;52.608;13.260;2024-03-25T13:31:57;3.60;;;1.08;;
71462;SDS011;59266;52.608;13.260;2024-03-25T13:34:23;3.08;;;1.05;;
71462;SDS011;59266;52.608;13.260;2024-03-25T13:36:49;5.25;;;1.50;;
71462;SDS011;59266;52.608;13.260;2024-03-25T13:39:14;4.82;;;1.10;;
71462;SDS011;59266;52.608;13.260;2024-03-25T13:41:40;3.25;;;1.20;;
71462;SDS011;59266;52.608;13.260;2024-03-25T13:44:06;3.38;;;1.17;;
71462;SDS011;59266;52.608;13.260;2024-03-25T13:46:31;4.90;;;1.30;;
71462;SDS011;59266;52.608;13.260;2024-03-25T13:48:57;4.68;;;1.42;;
71462;SDS011;59266;52.608;13.260;2024-03-25T13:51:22;4.95;;;1.65;;
71462;SDS011;59266;52.608;13.260;2024-03-25T13:53:48;5.30;;;1.55;;
71462;SDS011;59266;52.608;13.260;2024-03-25T13:56:13;5.38;;;1.58;;
71462;SDS011;59266;52.608;13.260;2024-03-25T13:58:39;3.88;;;1.30;;
71462;SDS011;59266;52.608;13.260;2024-03-25T14:01:05;4.88;;;1.10;;
71462;SDS011;59266;52.608;13.260;2024-03-25T14:03:32;3.03;;;1.05;;
71462;SDS011;59266;52.608;13.260;2024-03-25T14:05:58;3.60;;;1.40;;
71462;SDS011;59266;52.608;13.260;2024-03-25T14:08:24;2.90;;;1.15;;
71462;SDS011;59266;52.608;13.260;2024-03-25T14:10:59;4.07;;;1.25;;
71462;SDS011;59266;52.608;13.260;2024-03-25T14:13:25;3.78;;;1.17;;
71462;SDS011;59266;52.608;13.260;2024-03-25T14:15:51;2.90;;;0.93;;
71462;SDS011;59266;52.608;13.260;2024-03-25T14:18:16;3.05;;;1.00;;
71462;SDS011;59266;52.608;13.260;2024-03-25T14:20:42;3.63;;;1.20;;
71462;SDS011;59266;52.608;13.260;2024-03-25T14:23:08;2.80;;;1.10;;
71462;SDS011;59266;52.608;13.260;2024-03-25T14:25:34;2.53;;;0.98;;
71462;SDS011;59266;52.608;13.260;2024-03-25T14:27:59;3.25;;;1.38;;
71462;SDS011;59266;52.608;13.260;2024-03-25T14:30:25;3.42;;;1.10;;
71462;SDS011;59266;52.608;13.260;2024-03-25T14:32:51;3.80;;;1.08;;
71462;SDS011;59266;52.608;13.260;2024-03-25T14:35:16;3.75;;;1.10;;
71462;SDS011;59266;52.608;13.260;2024-03-25T14:37:42;3.72;;;1.27;;
71462;SDS011;59266;52.608;13.260;2024-03-25T14:40:08;5.13;;;1.23;;
71462;SDS011;59266;52.608;13.260;2024-03-25T14:42:34;4.35;;;1.30;;
71462;SDS011;59266;52.608;13.260;2024-03-25T14:45:00;3.85;;;1.20;;
71462;SDS011;59266;52.608;13.260;2024-03-25T14:47:25;4.93;;;1.65;;
71462;SDS011;59266;52.608;13.260;2024-03-25T14:49:51;7.82;;;1.40;;
71462;SDS011;59266;52.608;13.260;2024-03-25T14:52:16;4.53;;;1.30;;
71462;SDS011;59266;52.608;13.260;2024-03-25T14:54:42;4.30;;;1.23;;
71462;SDS011;59266;52.608;13.260;2024-03-25T14:57:07;4.82;;;1.15;;
71462;SDS011;59266;52.608;13.260;2024-03-25T14:59:33;2.85;;;1.10;;
71462;SDS011;59266;52.608;13.260;2024-03-25T15:02:00;3.95;;;1.30;;
71462;SDS011;59266;52.608;13.260;2024-03-25T15:04:26;2.78;;;1.15;;